Terminal Aerodrome Forecast
Issued by NWS

Home | Current Version | Previous Version | Text Only | Print | Product List | Glossary On
Versions: 1 2 3 4 5 6 7 8 9 10 11 12 13 14 15 16 17 18
000
FTUS41 KCAR 011721
TAFFVE
TAF
KFVE 011721Z 0118/0218 31014G22KT P6SM FEW250
     FM012000 31011KT P6SM SCT050
     FM020300 30010KT P6SM SCT250
     FM021700 24005KT P6SM BKN100=

USA.gov is the U.S. government's official web portal to all federal, state and local government web resources and services.